Time;durP1;ratioP1;P1;durP2;ratioP2;P2;SDS_P1;SDS_P2;PMS_P1;PMS_P2;Temp;Humidity;BMP_temperature;BMP_pressure;BME280_temperature;BME280_humidity;BME280_pressure;Samples;Min_cycle;Max_cycle;Signal;HPM_P1;HPM_P2
2023/04/04 00:01:32;;;;;;;5.63;2.30;;;2.10;99.90;;;;;;4963265;28;20118;-66
2023/04/04 00:03:58;;;;;;;5.38;2.78;;;2.10;99.90;;;;;;4945944;28;20038;-66
2023/04/04 00:06:24;;;;;;;6.53;2.60;;;2.10;99.90;;;;;;4967156;28;20094;-66
2023/04/04 00:08:49;;;;;;;4.55;2.30;;;2.10;99.90;;;;;;4962308;28;20046;-66
2023/04/04 00:11:15;;;;;;;7.47;3.78;;;2.00;99.90;;;;;;4949144;28;20074;-66
2023/04/04 00:13:41;;;;;;;5.47;2.90;;;2.00;99.90;;;;;;4960312;28;20079;-66
2023/04/04 00:16:07;;;;;;;5.90;2.45;;;2.00;99.90;;;;;;4948521;28;20125;-66
2023/04/04 00:18:32;;;;;;;8.65;2.97;;;2.00;99.90;;;;;;4965342;28;20038;-66
2023/04/04 00:20:58;;;;;;;4.68;2.60;;;1.90;99.90;;;;;;4959883;28;20051;-66
2023/04/04 00:23:24;;;;;;;7.25;3.05;;;1.90;99.90;;;;;;4958681;28;20050;-66
2023/04/04 00:25:51;;;;;;;6.93;3.20;;;1.90;99.90;;;;;;4962776;28;20043;-66
2023/04/04 00:28:18;;;;;;;6.95;2.85;;;1.80;99.90;;;;;;4964710;28;20115;-66
2023/04/04 00:30:44;;;;;;;10.73;3.58;;;1.80;99.90;;;;;;4961442;28;20073;-66
2023/04/04 00:33:10;;;;;;;6.35;3.05;;;1.80;99.90;;;;;;4965803;28;20038;-66
2023/04/04 00:35:35;;;;;;;5.32;2.92;;;1.80;99.90;;;;;;4963142;28;20475;-66
2023/04/04 00:38:01;;;;;;;5.97;3.17;;;1.80;99.90;;;;;;4966062;28;20501;-66
2023/04/04 00:40:27;;;;;;;4.22;2.75;;;1.80;99.90;;;;;;4969529;28;20043;-66
2023/04/04 00:42:53;;;;;;;5.70;3.17;;;1.80;99.90;;;;;;4946526;28;20101;-66
2023/04/04 00:45:18;;;;;;;5.05;2.72;;;1.70;99.90;;;;;;4964983;28;20335;-66
2023/04/04 00:47:45;;;;;;;7.80;3.08;;;1.80;99.90;;;;;;4953646;28;20098;-66
2023/04/04 00:50:11;;;;;;;6.53;3.13;;;1.80;99.90;;;;;;4943357;28;20086;-66
2023/04/04 00:52:37;;;;;;;11.13;3.72;;;1.70;99.90;;;;;;4950799;28;20039;-66
2023/04/04 00:55:03;;;;;;;6.25;3.00;;;1.70;99.90;;;;;;4968160;28;20057;-66
2023/04/04 00:57:30;;;;;;;5.70;3.20;;;1.70;99.90;;;;;;4951819;28;20398;-66
2023/04/04 01:00:03;;;;;;;6.03;3.47;;;1.60;99.90;;;;;;4949215;28;20043;-66
2023/04/04 01:02:30;;;;;;;6.07;3.23;;;1.60;99.90;;;;;;4965879;28;20070;-67
2023/04/04 01:04:56;;;;;;;5.72;3.05;;;1.60;99.90;;;;;;4965224;28;20043;-66
2023/04/04 01:07:22;;;;;;;7.72;3.47;;;1.60;99.90;;;;;;4967270;28;20404;-66
2023/04/04 01:09:49;;;;;;;5.63;3.20;;;1.60;99.90;;;;;;4961246;28;20035;-66
2023/04/04 01:12:15;;;;;;;5.70;2.95;;;1.50;99.90;;;;;;4968853;28;20032;-66
2023/04/04 01:14:40;;;;;;;7.88;3.47;;;1.50;99.90;;;;;;4970108;28;20096;-66
2023/04/04 01:17:07;;;;;;;6.78;3.05;;;1.50;99.90;;;;;;4953620;28;20034;-66
2023/04/04 01:19:40;;;;;;;7.32;3.38;;;1.50;99.90;;;;;;4945166;28;20208;-66
2023/04/04 01:22:08;;;;;;;5.18;3.15;;;1.40;99.90;;;;;;4967163;28;20495;-65
2023/04/04 01:24:34;;;;;;;7.85;3.72;;;1.40;99.90;;;;;;4951941;28;20085;-66
2023/04/04 01:27:00;;;;;;;9.85;3.95;;;1.30;99.90;;;;;;4967678;28;20402;-66
2023/04/04 01:29:26;;;;;;;8.77;3.78;;;1.40;99.90;;;;;;4965370;28;20530;-66
2023/04/04 01:32:19;;;;;;;6.65;3.47;;;1.30;99.90;;;;;;4965714;28;20081;-66
2023/04/04 01:35:00;;;;;;;8.68;3.22;;;1.30;99.90;;;;;;4968907;28;20057;-66
2023/04/04 01:37:37;;;;;;;7.65;3.90;;;1.30;99.90;;;;;;4964068;28;20575;-67
2023/04/04 01:40:17;;;;;;;7.05;3.90;;;1.30;99.90;;;;;;4965296;28;20031;-66
2023/04/04 01:42:47;;;;;;;6.35;4.10;;;1.20;99.90;;;;;;4965902;28;20047;-67
2023/04/04 01:45:12;;;;;;;8.35;3.80;;;1.20;99.90;;;;;;4967879;28;20089;-67
2023/04/04 01:47:42;;;;;;;4.38;3.42;;;1.20;99.90;;;;;;4962759;28;20347;-67
2023/04/04 01:50:09;;;;;;;7.10;3.85;;;1.20;99.90;;;;;;4964715;28;20086;-66
2023/04/04 01:52:36;;;;;;;7.15;4.10;;;1.10;99.90;;;;;;4949429;28;20140;-66
2023/04/04 01:55:02;;;;;;;8.23;4.20;;;1.10;99.90;;;;;;4965167;28;20037;-66
2023/04/04 01:57:29;;;;;;;7.25;3.65;;;1.10;99.90;;;;;;4960279;28;20074;-66
2023/04/04 01:59:55;;;;;;;8.93;4.18;;;1.00;99.90;;;;;;4966800;28;20074;-66
2023/04/04 02:02:21;;;;;;;5.45;3.15;;;1.00;99.90;;;;;;4966543;28;20030;-67
2023/04/04 02:04:46;;;;;;;9.80;3.72;;;1.00;99.90;;;;;;4949740;28;20527;-66
2023/04/04 02:07:13;;;;;;;6.63;3.70;;;0.90;99.90;;;;;;4957519;28;20142;-66
2023/04/04 02:09:39;;;;;;;4.90;3.60;;;0.90;99.90;;;;;;4954710;28;20050;-66
2023/04/04 02:12:05;;;;;;;6.95;3.92;;;0.90;99.90;;;;;;4966408;28;20064;-66
2023/04/04 02:14:30;;;;;;;8.10;3.92;;;0.90;99.90;;;;;;4978322;28;20062;-66
2023/04/04 02:16:56;;;;;;;8.02;3.90;;;0.90;99.90;;;;;;4958371;28;20159;-67
2023/04/04 02:19:23;;;;;;;7.80;4.07;;;0.90;99.90;;;;;;4968190;28;20031;-67
2023/04/04 02:21:49;;;;;;;6.72;4.70;;;0.90;99.90;;;;;;4966736;28;20046;-66
2023/04/04 02:24:15;;;;;;;7.30;3.97;;;0.80;99.90;;;;;;4949982;28;20054;-66
2023/04/04 02:26:40;;;;;;;6.07;3.70;;;0.80;99.90;;;;;;4963933;28;20125;-66
2023/04/04 02:29:06;;;;;;;5.93;3.95;;;0.80;99.90;;;;;;4961983;28;20395;-66
2023/04/04 02:31:32;;;;;;;7.32;3.67;;;0.70;99.90;;;;;;4949180;28;20047;-66
2023/04/04 02:33:58;;;;;;;7.72;4.05;;;0.70;99.90;;;;;;4967589;28;20561;-66
2023/04/04 02:36:24;;;;;;;6.75;3.95;;;0.70;99.90;;;;;;4949213;28;20122;-66
2023/04/04 02:38:50;;;;;;;6.97;3.45;;;0.60;99.90;;;;;;4964023;28;20035;-66
2023/04/04 02:41:15;;;;;;;7.70;4.32;;;0.60;99.90;;;;;;4970272;28;20057;-66
2023/04/04 02:43:41;;;;;;;7.38;3.75;;;0.60;99.90;;;;;;4960889;28;20043;-66
2023/04/04 02:46:07;;;;;;;9.93;4.10;;;0.60;99.90;;;;;;4951378;28;20043;-66
2023/04/04 02:48:33;;;;;;;9.15;3.90;;;0.60;99.90;;;;;;4964633;28;20480;-66
2023/04/04 02:50:59;;;;;;;10.02;4.35;;;0.50;99.90;;;;;;4968503;28;20050;-66
2023/04/04 02:53:24;;;;;;;8.07;4.20;;;0.50;99.90;;;;;;4967660;28;20042;-66
2023/04/04 02:55:50;;;;;;;6.53;4.00;;;0.50;99.90;;;;;;4966204;28;20149;-66
2023/04/04 02:58:16;;;;;;;6.50;3.92;;;0.50;99.90;;;;;;4962987;28;20035;-66
2023/04/04 03:00:42;;;;;;;7.68;4.45;;;0.40;99.90;;;;;;4969698;28;20074;-66
2023/04/04 03:03:08;;;;;;;7.55;3.90;;;0.40;99.90;;;;;;4961574;28;20047;-66
2023/04/04 03:05:34;;;;;;;9.65;4.00;;;0.40;99.90;;;;;;4966800;28;20042;-66
2023/04/04 03:07:59;;;;;;;8.30;4.03;;;0.40;99.90;;;;;;4962877;28;20038;-67
2023/04/04 03:10:28;;;;;;;5.13;3.53;;;0.40;99.90;;;;;;4966763;28;20049;-66
2023/04/04 03:12:55;;;;;;;4.10;3.70;;;0.30;99.90;;;;;;4959537;28;20118;-66
2023/04/04 03:15:21;;;;;;;6.63;3.47;;;0.30;99.90;;;;;;4961017;28;20039;-66
2023/04/04 03:17:46;;;;;;;8.65;3.97;;;0.30;99.90;;;;;;4966509;28;20090;-66
2023/04/04 03:20:14;;;;;;;5.82;4.07;;;0.30;99.90;;;;;;4967325;28;20142;-66
2023/04/04 03:22:40;;;;;;;8.25;3.80;;;0.20;99.90;;;;;;4945590;28;20672;-67
2023/04/04 03:25:07;;;;;;;4.93;3.92;;;0.20;99.90;;;;;;4964661;28;20043;-66
2023/04/04 03:27:33;;;;;;;6.97;3.83;;;0.20;99.90;;;;;;4966975;28;20057;-66
2023/04/04 03:29:59;;;;;;;8.73;4.25;;;0.20;99.90;;;;;;4962189;28;20470;-66
2023/04/04 03:32:25;;;;;;;6.40;3.65;;;0.20;99.90;;;;;;4964469;28;20074;-67
2023/04/04 03:34:51;;;;;;;7.38;3.88;;;0.10;99.90;;;;;;4960247;28;20494;-66
2023/04/04 03:37:17;;;;;;;6.70;3.65;;;0.10;99.90;;;;;;4966730;28;20039;-66
2023/04/04 03:39:42;;;;;;;8.15;4.13;;;0.10;99.90;;;;;;4963163;28;20034;-66
2023/04/04 03:42:08;;;;;;;6.97;3.90;;;0.10;99.90;;;;;;4964575;28;20553;-66
2023/04/04 03:44:35;;;;;;;7.78;3.70;;;0.10;99.90;;;;;;4961505;28;20042;-67
2023/04/04 03:47:01;;;;;;;5.88;3.35;;;0.10;99.90;;;;;;4967589;28;20069;-66
2023/04/04 03:49:27;;;;;;;8.23;3.50;;;0.00;99.90;;;;;;4944376;28;20055;-66
2023/04/04 03:51:52;;;;;;;7.95;3.45;;;0.00;99.90;;;;;;4961887;28;20186;-66
2023/04/04 03:54:18;;;;;;;5.05;3.08;;;0.00;99.90;;;;;;4960075;28;20127;-66
2023/04/04 03:56:44;;;;;;;6.25;3.05;;;0.00;99.90;;;;;;4962824;28;20046;-66
2023/04/04 03:59:10;;;;;;;7.60;3.30;;;-0.10;99.90;;;;;;4959207;28;20399;-66
2023/04/04 04:01:35;;;;;;;5.85;3.38;;;-0.10;99.90;;;;;;4963731;28;20082;-66
2023/04/04 04:04:01;;;;;;;7.10;3.47;;;-0.10;99.90;;;;;;4948992;28;20441;-66
2023/04/04 04:06:27;;;;;;;7.00;3.25;;;-0.10;99.90;;;;;;4966558;28;20133;-66
2023/04/04 04:08:52;;;;;;;8.30;3.80;;;-0.10;99.90;;;;;;4957862;28;20035;-66
2023/04/04 04:11:18;;;;;;;8.65;3.40;;;-0.20;99.90;;;;;;4963209;28;20051;-66
2023/04/04 04:13:45;;;;;;;5.13;3.15;;;-0.20;99.90;;;;;;4962659;28;20043;-66
2023/04/04 04:16:11;;;;;;;7.22;3.40;;;-0.20;99.90;;;;;;4963882;28;20458;-66
2023/04/04 04:18:36;;;;;;;7.28;3.60;;;-0.20;99.90;;;;;;4961806;28;20436;-66
2023/04/04 04:21:03;;;;;;;6.80;3.08;;;-0.20;99.90;;;;;;4967845;28;20106;-66
2023/04/04 04:23:30;;;;;;;7.95;3.35;;;-0.20;99.90;;;;;;4966316;28;20047;-66
2023/04/04 04:25:56;;;;;;;5.85;3.95;;;-0.20;99.90;;;;;;4966804;28;20030;-66
2023/04/04 04:28:24;;;;;;;6.68;3.47;;;-0.20;99.90;;;;;;4963181;28;20541;-67
2023/04/04 04:30:51;;;;;;;6.47;3.13;;;-0.30;99.90;;;;;;4961246;28;20043;-66
2023/04/04 04:33:20;;;;;;;6.60;3.25;;;-0.30;99.90;;;;;;4948798;28;20102;-66
2023/04/04 04:35:45;;;;;;;7.13;3.40;;;-0.30;99.90;;;;;;4967583;28;20395;-66
2023/04/04 04:38:11;;;;;;;6.57;3.70;;;-0.30;99.90;;;;;;4960191;28;20082;-66
2023/04/04 04:40:37;;;;;;;5.75;3.20;;;-0.30;99.90;;;;;;4967624;28;20105;-66
2023/04/04 04:43:02;;;;;;;4.60;3.28;;;-0.30;99.90;;;;;;4950592;28;20046;-66
2023/04/04 04:45:28;;;;;;;6.32;3.45;;;-0.40;99.90;;;;;;4963997;28;20043;-66
2023/04/04 04:47:54;;;;;;;5.03;2.97;;;-0.40;99.90;;;;;;4952061;28;20039;-66
2023/04/04 04:50:20;;;;;;;3.75;2.92;;;-0.40;99.90;;;;;;4964001;28;20050;-66
2023/04/04 04:52:45;;;;;;;6.90;3.25;;;-0.40;99.90;;;;;;4945761;28;20089;-66
2023/04/04 04:55:11;;;;;;;5.80;3.38;;;-0.40;99.90;;;;;;4965541;28;20503;-66
2023/04/04 04:57:37;;;;;;;6.38;3.03;;;-0.40;99.90;;;;;;4964471;28;20085;-66
2023/04/04 05:00:04;;;;;;;6.05;3.15;;;-0.40;99.90;;;;;;4951266;28;20538;-66
2023/04/04 05:02:30;;;;;;;6.68;2.95;;;-0.50;99.90;;;;;;4961170;28;20049;-66
2023/04/04 05:04:56;;;;;;;5.88;3.70;;;-0.50;99.90;;;;;;4965662;28;20114;-66
2023/04/04 05:07:22;;;;;;;6.15;3.38;;;-0.50;99.90;;;;;;4945451;28;20118;-66
2023/04/04 05:09:48;;;;;;;5.72;3.30;;;-0.50;99.90;;;;;;4964138;28;20046;-66
2023/04/04 05:12:14;;;;;;;4.50;2.97;;;-0.50;99.90;;;;;;4967808;28;20431;-66
2023/04/04 05:14:40;;;;;;;6.07;3.53;;;-0.50;99.90;;;;;;4966324;28;20026;-66
2023/04/04 05:17:06;;;;;;;6.03;3.58;;;-0.50;99.90;;;;;;4964177;28;20038;-66
2023/04/04 05:19:31;;;;;;;8.45;4.00;;;-0.50;99.90;;;;;;4944451;28;20035;-66
2023/04/04 05:21:57;;;;;;;6.70;3.70;;;-0.50;99.90;;;;;;4966935;28;20042;-66
2023/04/04 05:24:23;;;;;;;8.65;3.65;;;-0.50;99.90;;;;;;4964609;28;20487;-66
2023/04/04 05:26:48;;;;;;;6.65;3.58;;;-0.40;99.90;;;;;;4947028;28;20047;-66
2023/04/04 05:29:14;;;;;;;8.23;3.38;;;-0.40;99.90;;;;;;4964413;28;20368;-66
2023/04/04 05:31:40;;;;;;;6.70;4.00;;;-0.40;99.90;;;;;;4950788;28;20047;-66
2023/04/04 05:34:08;;;;;;;5.60;3.90;;;-0.30;99.90;;;;;;4963004;28;20293;-66
2023/04/04 05:36:35;;;;;;;9.60;3.90;;;-0.30;99.90;;;;;;4964664;28;20046;-66
2023/04/04 05:39:03;;;;;;;6.93;3.70;;;-0.20;99.90;;;;;;4963709;28;20105;-66
2023/04/04 05:41:29;;;;;;;7.68;3.15;;;-0.20;99.90;;;;;;4965607;28;20478;-66
2023/04/04 05:43:55;;;;;;;7.15;3.50;;;-0.10;99.90;;;;;;4967191;28;20130;-66
2023/04/04 05:46:22;;;;;;;9.75;4.00;;;0.00;99.90;;;;;;4966303;28;20125;-66
2023/04/04 05:48:49;;;;;;;6.78;3.55;;;0.10;99.90;;;;;;4961418;28;20038;-67
2023/04/04 05:51:15;;;;;;;4.70;3.13;;;0.20;99.90;;;;;;4965026;28;20097;-66
2023/04/04 05:53:41;;;;;;;6.95;3.88;;;0.40;99.90;;;;;;4955889;28;20128;-66
2023/04/04 05:56:06;;;;;;;6.75;3.65;;;0.40;99.90;;;;;;4960921;28;20031;-66
2023/04/04 05:58:32;;;;;;;7.32;3.20;;;0.50;99.90;;;;;;4965029;28;20038;-67
2023/04/04 06:00:58;;;;;;;6.95;2.80;;;0.70;99.90;;;;;;4967019;28;20398;-66
2023/04/04 06:03:23;;;;;;;6.25;3.20;;;0.80;99.90;;;;;;4966103;28;20039;-66
2023/04/04 06:05:53;;;;;;;5.72;3.55;;;0.90;99.90;;;;;;4962234;28;20046;-66
2023/04/04 06:08:18;;;;;;;6.72;3.92;;;1.00;99.90;;;;;;4966433;28;20062;-66
2023/04/04 06:10:44;;;;;;;5.60;2.90;;;1.10;99.90;;;;;;4951083;28;20046;-67
2023/04/04 06:13:10;;;;;;;4.68;3.47;;;1.20;99.90;;;;;;4964702;28;20088;-66
2023/04/04 06:15:36;;;;;;;7.35;3.92;;;1.30;99.90;;;;;;4951749;28;20497;-66
2023/04/04 06:18:01;;;;;;;6.45;2.33;;;1.40;99.90;;;;;;4952019;28;20050;-66
2023/04/04 06:20:27;;;;;;;6.35;2.28;;;1.40;99.90;;;;;;4961416;28;20047;-66
2023/04/04 06:22:53;;;;;;;5.22;2.78;;;1.50;99.90;;;;;;4971079;28;20100;-67
2023/04/04 06:25:19;;;;;;;5.45;2.40;;;1.40;99.90;;;;;;4961433;28;20074;-66
2023/04/04 06:27:45;;;;;;;5.80;2.13;;;1.40;99.90;;;;;;4954338;28;20122;-67
2023/04/04 06:30:13;;;;;;;7.93;2.80;;;1.40;99.90;;;;;;4967154;28;20069;-66
2023/04/04 06:32:38;;;;;;;4.47;2.20;;;1.40;99.90;;;;;;4949883;28;20047;-66
2023/04/04 06:35:05;;;;;;;5.68;2.92;;;1.40;99.90;;;;;;4964927;28;20057;-66
2023/04/04 06:37:31;;;;;;;4.45;2.42;;;1.50;99.90;;;;;;4947394;28;20466;-66
2023/04/04 06:39:57;;;;;;;6.53;2.90;;;1.50;99.90;;;;;;4962044;28;20035;-66
2023/04/04 06:42:22;;;;;;;4.53;2.83;;;1.50;99.90;;;;;;4961367;28;20470;-66
2023/04/04 06:44:48;;;;;;;5.20;2.63;;;1.60;99.90;;;;;;4965426;28;20050;-66
2023/04/04 06:47:14;;;;;;;8.73;3.15;;;1.70;99.90;;;;;;4966901;28;20078;-66
2023/04/04 06:49:39;;;;;;;5.95;2.88;;;1.80;99.90;;;;;;4966397;28;20423;-66
2023/04/04 06:52:05;;;;;;;5.97;2.47;;;1.90;99.90;;;;;;4944998;28;20074;-66
2023/04/04 06:54:32;;;;;;;5.57;2.50;;;2.00;99.90;;;;;;4967074;28;20034;-66
2023/04/04 06:56:57;;;;;;;5.82;2.53;;;2.00;99.90;;;;;;4962378;28;20050;-66
2023/04/04 06:59:23;;;;;;;9.73;2.08;;;2.10;99.90;;;;;;4964590;28;20158;-66
2023/04/04 07:01:49;;;;;;;9.15;2.55;;;2.30;99.90;;;;;;4961937;28;20041;-66
2023/04/04 07:04:18;;;;;;;6.00;2.17;;;2.50;99.90;;;;;;4949886;28;20138;-66
2023/04/04 07:06:43;;;;;;;5.60;2.53;;;2.70;99.90;;;;;;4964941;28;20097;-66
2023/04/04 07:09:09;;;;;;;6.20;2.10;;;2.90;99.90;;;;;;4965327;28;20035;-66
2023/04/04 07:11:35;;;;;;;8.80;2.17;;;3.20;99.90;;;;;;4948660;28;20445;-66
2023/04/04 07:14:00;;;;;;;4.20;2.00;;;3.50;99.90;;;;;;4964115;28;20030;-67
2023/04/04 07:16:27;;;;;;;5.65;1.90;;;3.70;99.90;;;;;;4948069;28;20039;-66
2023/04/04 07:18:52;;;;;;;2.53;1.50;;;3.90;99.90;;;;;;4966382;28;20055;-67
2023/04/04 07:21:19;;;;;;;5.93;2.15;;;4.10;99.90;;;;;;4962901;28;20151;-67
2023/04/04 07:23:45;;;;;;;7.55;3.35;;;4.20;99.90;;;;;;4973270;28;20463;-67
2023/04/04 07:26:11;;;;;;;4.25;1.98;;;4.50;99.90;;;;;;4968485;28;20038;-67
2023/04/04 07:28:36;;;;;;;4.00;1.70;;;4.70;99.90;;;;;;4950231;28;20038;-67
2023/04/04 07:31:02;;;;;;;5.00;2.08;;;4.90;99.90;;;;;;4964803;28;20119;-67
2023/04/04 07:33:28;;;;;;;4.85;1.80;;;5.10;99.90;;;;;;4963776;28;20054;-67
2023/04/04 07:35:54;;;;;;;5.68;2.40;;;5.30;99.90;;;;;;4966655;28;20053;-67
2023/04/04 07:38:19;;;;;;;3.58;1.55;;;5.40;99.90;;;;;;4949304;28;20054;-67
2023/04/04 07:40:48;;;;;;;6.25;1.77;;;5.60;99.90;;;;;;4959411;28;20039;-67
2023/04/04 07:43:14;;;;;;;4.63;1.40;;;6.00;99.90;;;;;;4961326;28;20051;-67
2023/04/04 07:45:40;;;;;;;4.53;1.42;;;6.60;99.90;;;;;;4971074;28;20049;-67
2023/04/04 07:48:05;;;;;;;6.40;2.00;;;7.20;99.90;;;;;;4951755;28;20045;-67
2023/04/04 07:50:31;;;;;;;3.60;1.42;;;8.00;99.90;;;;;;4959245;28;20062;-67
2023/04/04 07:52:57;;;;;;;5.93;2.10;;;8.60;99.90;;;;;;4966123;28;20039;-68
2023/04/04 07:55:24;;;;;;;5.57;1.75;;;9.40;99.90;;;;;;4966213;28;20126;-67
2023/04/04 07:57:53;;;;;;;3.67;1.63;;;10.20;99.90;;;;;;4961547;28;20034;-67
2023/04/04 08:00:25;;;;;;;4.55;1.50;;;10.80;99.90;;;;;;4948779;28;20055;-67
2023/04/04 08:02:52;;;;;;;3.45;1.30;;;11.30;99.90;;;;;;4966276;28;20122;-68
2023/04/04 08:05:18;;;;;;;3.22;1.10;;;11.80;99.60;;;;;;4964186;28;20031;-67
2023/04/04 08:07:44;;;;;;;4.18;0.93;;;12.20;96.90;;;;;;4961756;28;20034;-68
2023/04/04 08:10:10;;;;;;;4.20;1.10;;;12.20;94.20;;;;;;4946083;28;20482;-68
2023/04/04 08:12:35;;;;;;;4.32;1.60;;;12.50;94.90;;;;;;4949728;28;20053;-68
2023/04/04 08:15:01;;;;;;;3.45;1.27;;;12.80;94.10;;;;;;4964700;28;20066;-68
2023/04/04 08:17:27;;;;;;;4.43;1.40;;;13.10;92.90;;;;;;4963139;28;20454;-68
2023/04/04 08:19:53;;;;;;;6.03;1.48;;;13.50;91.40;;;;;;4963492;28;20039;-68
2023/04/04 08:22:19;;;;;;;3.60;1.27;;;13.80;90.70;;;;;;4946840;28;20152;-68
2023/04/04 08:24:45;;;;;;;5.57;1.30;;;13.90;90.30;;;;;;4965089;28;20483;-68
2023/04/04 08:27:11;;;;;;;4.00;1.40;;;14.10;87.20;;;;;;4968282;28;20093;-68
2023/04/04 08:29:36;;;;;;;4.03;1.52;;;14.20;86.00;;;;;;4965739;28;20086;-68
2023/04/04 08:32:02;;;;;;;3.55;1.20;;;14.50;85.40;;;;;;4965148;28;20039;-68
2023/04/04 08:34:28;;;;;;;3.65;1.48;;;14.80;85.80;;;;;;4966751;28;20050;-69
2023/04/04 08:36:54;;;;;;;4.82;1.20;;;15.20;83.30;;;;;;4964720;28;20178;-68
2023/04/04 08:39:20;;;;;;;3.53;1.15;;;15.20;79.80;;;;;;4965228;28;20034;-68
2023/04/04 08:41:46;;;;;;;6.55;1.20;;;15.10;76.80;;;;;;4962934;28;20049;-69
2023/04/04 08:44:19;;;;;;;3.58;1.00;;;15.10;74.90;;;;;;4966984;28;20479;-68
2023/04/04 08:46:46;;;;;;;3.90;1.10;;;15.30;72.20;;;;;;4961181;28;20499;-69
2023/04/04 08:49:14;;;;;;;3.55;1.00;;;15.80;73.00;;;;;;4969547;28;20063;-69
2023/04/04 08:51:43;;;;;;;2.35;0.82;;;16.50;70.90;;;;;;4964075;28;20463;-69
2023/04/04 08:54:11;;;;;;;4.60;0.80;;;16.80;66.70;;;;;;4966670;28;20098;-69
2023/04/04 08:56:37;;;;;;;2.92;0.70;;;16.10;60.60;;;;;;4951056;28;20084;-68
2023/04/04 08:59:03;;;;;;;4.75;0.80;;;15.70;61.40;;;;;;4969551;28;20070;-69
2023/04/04 09:01:29;;;;;;;3.50;1.10;;;15.60;61.10;;;;;;4967273;28;20051;-69
2023/04/04 09:04:00;;;;;;;6.45;0.90;;;15.50;60.50;;;;;;4944104;28;20043;-69
2023/04/04 09:06:27;;;;;;;3.00;0.90;;;15.00;56.60;;;;;;4954443;28;20567;-68
2023/04/04 09:08:53;;;;;;;4.10;0.77;;;14.60;58.60;;;;;;4966152;28;20049;-69
2023/04/04 09:11:21;;;;;;;2.00;0.73;;;14.50;60.20;;;;;;4962902;28;20047;-69
2023/04/04 09:13:49;;;;;;;2.97;1.30;;;14.30;59.30;;;;;;4965985;28;20031;-69
2023/04/04 09:16:16;;;;;;;2.63;1.00;;;13.90;61.30;;;;;;4954643;28;20062;-69
2023/04/04 09:18:42;;;;;;;4.45;1.15;;;13.70;60.50;;;;;;4970474;28;20045;-68
2023/04/04 09:21:10;;;;;;;3.53;1.08;;;13.60;60.80;;;;;;4963061;28;20514;-69
2023/04/04 09:23:36;;;;;;;3.53;1.20;;;13.60;60.60;;;;;;4967090;28;20039;-69
2023/04/04 09:26:02;;;;;;;2.08;0.88;;;13.90;62.50;;;;;;4942567;28;20125;-69
2023/04/04 09:28:28;;;;;;;2.78;0.88;;;14.30;61.30;;;;;;4971876;28;21291;-69
2023/04/04 09:30:54;;;;;;;8.65;1.33;;;14.20;60.80;;;;;;4950552;28;20133;-69
2023/04/04 09:33:20;;;;;;;4.25;1.40;;;14.40;60.80;;;;;;4949612;28;20070;-69
2023/04/04 09:35:57;;;;;;;2.22;0.88;;;14.60;61.40;;;;;;4967594;28;20050;-69
2023/04/04 09:38:24;;;;;;;2.83;1.23;;;14.90;59.30;;;;;;4970770;28;20114;-69
2023/04/04 09:40:51;;;;;;;3.72;1.00;;;14.90;57.80;;;;;;4940575;28;20042;-69
2023/04/04 09:43:18;;;;;;;3.80;1.00;;;15.30;59.50;;;;;;4948626;28;20042;-70
2023/04/04 09:45:44;;;;;;;4.35;1.13;;;15.70;60.20;;;;;;4966949;28;20053;-70
2023/04/04 09:48:10;;;;;;;4.20;1.23;;;16.00;59.30;;;;;;4965943;28;20049;-70
2023/04/04 09:50:57;;;;;;;3.35;1.00;;;16.00;56.40;;;;;;4970215;28;20054;-70
2023/04/04 09:53:23;;;;;;;4.10;1.25;;;15.80;51.50;;;;;;4965552;28;20093;-69
2023/04/04 09:55:51;;;;;;;3.53;1.17;;;15.40;56.70;;;;;;4965130;28;20496;-70
2023/04/04 09:58:22;;;;;;;4.78;1.08;;;15.20;56.60;;;;;;4969653;28;20041;-70
2023/04/04 10:00:51;;;;;;;3.30;1.17;;;15.30;56.80;;;;;;4956690;28;20043;-69
2023/04/04 10:03:17;;;;;;;3.40;1.13;;;14.80;56.20;;;;;;4967311;28;20039;-69
2023/04/04 10:05:47;;;;;;;3.25;1.30;;;15.10;58.30;;;;;;4953546;28;20137;-70
2023/04/04 10:08:17;;;;;;;3.40;1.30;;;15.30;58.70;;;;;;4953754;28;20173;-70
2023/04/04 10:10:50;;;;;;;5.80;1.45;;;15.80;57.10;;;;;;4966657;28;20530;-70
2023/04/04 10:13:24;;;;;;;4.53;1.67;;;15.70;55.40;;;;;;4959855;28;20394;-70
2023/04/04 10:15:52;;;;;;;2.67;1.20;;;15.90;57.50;;;;;;4971392;28;20404;-70
2023/04/04 10:18:20;;;;;;;2.88;1.20;;;16.10;57.40;;;;;;4969588;28;20035;-70
2023/04/04 10:20:49;;;;;;;3.22;1.20;;;16.30;58.20;;;;;;4963897;28;20457;-70
2023/04/04 10:23:15;;;;;;;3.25;1.40;;;16.20;55.80;;;;;;4950528;28;20051;-70
2023/04/04 10:25:41;;;;;;;3.53;1.70;;;16.20;55.50;;;;;;4952524;28;20038;-70
2023/04/04 10:28:07;;;;;;;4.75;1.52;;;16.20;54.90;;;;;;4945417;28;20035;-71
2023/04/04 10:30:39;;;;;;;3.47;1.65;;;16.30;55.00;;;;;;4967798;28;20057;-70
2023/04/04 10:33:14;;;;;;;3.08;1.50;;;15.50;53.40;;;;;;4944313;28;20062;-70
2023/04/04 10:35:44;;;;;;;4.85;1.40;;;15.40;54.20;;;;;;4955109;28;20070;-70
2023/04/04 10:38:11;;;;;;;3.83;1.75;;;15.20;54.80;;;;;;4965915;28;20045;-70
2023/04/04 10:40:38;;;;;;;3.97;1.65;;;15.40;56.70;;;;;;4947288;28;20074;-70
2023/04/04 10:43:06;;;;;;;4.47;1.80;;;15.70;55.00;;;;;;4962484;28;20078;-70
2023/04/04 10:45:34;;;;;;;4.07;2.10;;;15.60;55.60;;;;;;4968732;28;20065;-70
2023/04/04 10:48:02;;;;;;;4.35;2.00;;;15.70;55.60;;;;;;4962727;28;20043;-69
2023/04/04 10:50:30;;;;;;;3.17;1.90;;;15.50;54.00;;;;;;4961905;28;20293;-69
2023/04/04 10:52:58;;;;;;;4.45;2.00;;;15.20;54.60;;;;;;4963355;28;20053;-70
2023/04/04 10:55:25;;;;;;;3.90;1.77;;;15.10;53.50;;;;;;4967561;28;20039;-69
2023/04/04 10:57:54;;;;;;;3.65;1.65;;;14.90;52.00;;;;;;4946018;28;20053;-70
2023/04/04 11:00:23;;;;;;;5.55;2.70;;;14.70;52.60;;;;;;4961595;28;20042;-70
2023/04/04 11:02:52;;;;;;;2.95;1.60;;;14.20;53.50;;;;;;4950673;28;20398;-70
2023/04/04 11:05:23;;;;;;;3.42;1.83;;;14.30;52.60;;;;;;4964911;28;20039;-69
2023/04/04 11:07:58;;;;;;;4.63;1.98;;;14.20;51.70;;;;;;4937785;28;20117;-69
2023/04/04 11:10:29;;;;;;;4.20;1.70;;;14.00;50.80;;;;;;4964229;28;20051;-69
2023/04/04 11:13:03;;;;;;;4.45;1.50;;;14.00;50.60;;;;;;4971816;28;20034;-69
2023/04/04 11:16:06;;;;;;;4.53;2.10;;;13.90;52.30;;;;;;4969151;28;20505;-69
2023/04/04 11:18:44;;;;;;;3.50;1.63;;;13.80;49.40;;;;;;4950586;28;20043;-69
2023/04/04 11:21:17;;;;;;;4.70;1.70;;;13.70;52.20;;;;;;4968109;28;20373;-69
2023/04/04 11:23:48;;;;;;;2.45;1.30;;;14.10;52.40;;;;;;4971697;28;20497;-69
2023/04/04 11:26:34;;;;;;;2.47;1.40;;;14.20;50.90;;;;;;4964141;28;20133;-69
2023/04/04 11:29:00;;;;;;;4.95;1.50;;;14.10;50.00;;;;;;4950128;28;20046;-70
2023/04/04 11:31:37;;;;;;;4.53;1.58;;;14.20;51.60;;;;;;4968943;28;20473;-69
2023/04/04 11:34:08;;;;;;;3.38;1.42;;;14.40;51.10;;;;;;4952618;28;20043;-69
2023/04/04 11:36:34;;;;;;;2.72;1.52;;;14.40;51.40;;;;;;4969251;28;20073;-69
2023/04/04 11:39:23;;;;;;;4.78;1.70;;;14.10;50.60;;;;;;4948613;28;20109;-69
2023/04/04 11:41:49;;;;;;;2.63;1.42;;;14.20;52.50;;;;;;4965351;28;20061;-69
2023/04/04 11:44:16;;;;;;;3.65;1.52;;;14.20;51.50;;;;;;4949431;28;20101;-69
2023/04/04 11:46:42;;;;;;;4.65;1.52;;;14.10;51.70;;;;;;4959708;28;20074;-69
2023/04/04 11:49:11;;;;;;;2.67;1.60;;;13.90;49.80;;;;;;4962118;28;20062;-69
2023/04/04 11:51:41;;;;;;;4.13;1.75;;;14.00;50.30;;;;;;4962653;28;20051;-69
2023/04/04 11:54:14;;;;;;;4.97;1.80;;;14.00;51.40;;;;;;4963693;28;20038;-69
2023/04/04 11:56:43;;;;;;;3.38;1.60;;;14.30;51.40;;;;;;4963138;28;20043;-69
2023/04/04 11:59:16;;;;;;;3.75;1.48;;;14.00;49.40;;;;;;4961719;28;20557;-69
2023/04/04 12:01:43;;;;;;;3.55;1.63;;;14.10;51.50;;;;;;4963261;28;20043;-69
2023/04/04 12:04:09;;;;;;;5.28;1.80;;;14.30;50.60;;;;;;4951340;28;20501;-69
2023/04/04 12:06:39;;;;;;;3.17;1.58;;;14.60;50.30;;;;;;4947596;28;20122;-69
2023/04/04 12:09:05;;;;;;;3.67;1.58;;;14.70;48.70;;;;;;4964297;28;20256;-69
2023/04/04 12:11:36;;;;;;;3.22;1.52;;;14.90;50.70;;;;;;4951974;28;20074;-70
2023/04/04 12:14:01;;;;;;;4.22;2.08;;;15.10;50.50;;;;;;4976728;28;20118;-69
2023/04/04 12:16:27;;;;;;;6.18;1.83;;;15.20;49.70;;;;;;4961441;28;20122;-70
2023/04/04 12:18:55;;;;;;;3.35;1.58;;;14.90;49.40;;;;;;4943212;28;20050;-69
2023/04/04 12:21:21;;;;;;;3.00;1.50;;;14.70;49.40;;;;;;4952600;28;20058;-69
2023/04/04 12:23:47;;;;;;;4.63;2.00;;;14.90;49.80;;;;;;4946715;28;20068;-69
2023/04/04 12:26:15;;;;;;;5.88;1.95;;;14.80;48.70;;;;;;4963518;28;20388;-69
2023/04/04 12:28:44;;;;;;;4.35;1.35;;;14.80;50.10;;;;;;4952310;28;20126;-70
2023/04/04 12:31:11;;;;;;;4.15;2.00;;;15.00;48.00;;;;;;4949255;28;20155;-69
2023/04/04 12:33:39;;;;;;;3.60;1.80;;;15.00;47.50;;;;;;4964363;28;20054;-70
2023/04/04 12:36:05;;;;;;;5.07;1.92;;;14.70;47.70;;;;;;4966014;28;20084;-69
2023/04/04 12:38:31;;;;;;;4.97;2.20;;;14.50;48.70;;;;;;4963361;28;20051;-69
2023/04/04 12:40:58;;;;;;;4.35;1.80;;;14.10;48.20;;;;;;4966483;28;20050;-69
2023/04/04 12:43:30;;;;;;;5.40;1.90;;;13.50;48.50;;;;;;4949944;28;20070;-72
2023/04/04 12:45:57;;;;;;;5.57;1.70;;;13.10;50.40;;;;;;4946878;28;20043;-72
2023/04/04 12:48:29;;;;;;;4.82;1.90;;;13.10;50.30;;;;;;4967614;28;20557;-72
2023/04/04 12:50:56;;;;;;;4.85;2.03;;;13.10;50.10;;;;;;4962464;28;20070;-69